Kugler, Minnesota
Current Conditions -  °F | °C
As of 12:14 AM on Saturday 29 Nov 2014 (Local Time) from KCQM Reporting Station
Overcast Overcast  
Wind Chill:   Ceiling: 1900
Heat Index: 18°   Visibility: 10mi
Dew Point: 12°   Wind: 7mph
Humidity: 79%   Direction: 150°SSE
Pressure: 29.63"   Gusts: NA
Location:  47.7992°N, 92.3042°W
Report Text: KCQM 290614Z AUTO 15006KT 10SM OVC019 M08/M11 A2963 RMK AO2
Loading
Personal Weather Stations






























Interactive Weather Map New forecast layout! Learn more

10-Day Weather Forecast

Advertisements
Track Severe Weather on mobile